sensor_id;sensor_type;location;lat;lon;timestamp;pressure;altitude;pressure_sealevel;temperature;humidity
65190;BME280;51777;53.570;9.984;2023-03-16T00:00:47;101725.47;;;2.79;100.00
65190;BME280;51777;53.570;9.984;2023-03-16T00:03:13;101729.00;;;2.77;100.00
65190;BME280;51777;53.570;9.984;2023-03-16T00:05:52;101729.09;;;2.75;100.00
65190;BME280;51777;53.570;9.984;2023-03-16T00:08:18;101737.69;;;2.73;100.00
65190;BME280;51777;53.570;9.984;2023-03-16T00:10:45;101731.91;;;2.69;100.00
65190;BME280;51777;53.570;9.984;2023-03-16T00:13:17;101737.16;;;2.66;100.00
65190;BME280;51777;53.570;9.984;2023-03-16T00:15:55;101741.44;;;2.65;100.00
65190;BME280;51777;53.570;9.984;2023-03-16T00:18:22;101752.47;;;2.66;100.00
65190;BME280;51777;53.570;9.984;2023-03-16T00:20:59;101741.44;;;2.65;100.00
65190;BME280;51777;53.570;9.984;2023-03-16T00:23:26;101744.75;;;2.68;100.00
65190;BME280;51777;53.570;9.984;2023-03-16T00:25:56;101741.38;;;2.67;100.00
65190;BME280;51777;53.570;9.984;2023-03-16T00:28:23;101743.78;;;2.70;100.00
65190;BME280;51777;53.570;9.984;2023-03-16T00:30:48;101747.22;;;2.69;100.00
65190;BME280;51777;53.570;9.984;2023-03-16T00:33:14;101744.81;;;2.66;100.00
65190;BME280;51777;53.570;9.984;2023-03-16T00:35:40;101740.47;;;2.68;100.00
65190;BME280;51777;53.570;9.984;2023-03-16T00:38:18;101749.16;;;2.64;100.00
65190;BME280;51777;53.570;9.984;2023-03-16T00:40:44;101748.41;;;2.62;100.00
65190;BME280;51777;53.570;9.984;2023-03-16T00:43:11;101745.88;;;2.62;100.00
65190;BME280;51777;53.570;9.984;2023-03-16T00:45:37;101740.28;;;2.54;100.00
65190;BME280;51777;53.570;9.984;2023-03-16T00:48:02;101752.22;;;2.53;100.00
65190;BME280;51777;53.570;9.984;2023-03-16T00:50:28;101745.44;;;2.52;100.00
65190;BME280;51777;53.570;9.984;2023-03-16T00:52:53;101755.66;;;2.52;100.00
65190;BME280;51777;53.570;9.984;2023-03-16T00:55:19;101743.09;;;2.48;100.00
65190;BME280;51777;53.570;9.984;2023-03-16T00:57:45;101743.97;;;2.47;100.00
65190;BME280;51777;53.570;9.984;2023-03-16T01:00:12;101742.31;;;2.46;100.00
65190;BME280;51777;53.570;9.984;2023-03-16T01:02:41;101744.06;;;2.45;100.00
65190;BME280;51777;53.570;9.984;2023-03-16T01:05:07;101749.22;;;2.44;100.00
65190;BME280;51777;53.570;9.984;2023-03-16T01:07:33;101745.16;;;2.40;100.00
65190;BME280;51777;53.570;9.984;2023-03-16T01:10:01;101740.06;;;2.40;100.00
65190;BME280;51777;53.570;9.984;2023-03-16T01:12:26;101737.84;;;2.32;100.00
65190;BME280;51777;53.570;9.984;2023-03-16T01:14:52;101732.06;;;2.28;100.00
65190;BME280;51777;53.570;9.984;2023-03-16T01:17:18;101729.28;;;2.33;100.00
65190;BME280;51777;53.570;9.984;2023-03-16T01:19:44;101727.09;;;2.25;100.00
65190;BME280;51777;53.570;9.984;2023-03-16T01:22:10;101722.09;;;2.22;100.00
65190;BME280;51777;53.570;9.984;2023-03-16T01:24:37;101722.25;;;2.19;100.00
65190;BME280;51777;53.570;9.984;2023-03-16T01:27:04;101729.34;;;2.13;100.00
65190;BME280;51777;53.570;9.984;2023-03-16T01:29:30;101723.28;;;2.15;100.00
65190;BME280;51777;53.570;9.984;2023-03-16T01:31:55;101724.13;;;2.16;100.00
65190;BME280;51777;53.570;9.984;2023-03-16T01:34:21;101719.09;;;2.14;100.00
65190;BME280;51777;53.570;9.984;2023-03-16T01:36:49;101723.53;;;2.09;100.00
65190;BME280;51777;53.570;9.984;2023-03-16T01:39:15;101716.25;;;2.01;100.00
65190;BME280;51777;53.570;9.984;2023-03-16T01:41:42;101720.00;;;1.93;100.00
65190;BME280;51777;53.570;9.984;2023-03-16T01:44:17;101712.56;;;1.88;100.00
65190;BME280;51777;53.570;9.984;2023-03-16T01:46:42;101715.28;;;1.84;100.00
65190;BME280;51777;53.570;9.984;2023-03-16T01:49:09;101717.78;;;1.85;100.00
65190;BME280;51777;53.570;9.984;2023-03-16T01:51:42;101723.69;;;1.86;100.00
65190;BME280;51777;53.570;9.984;2023-03-16T01:54:59;101732.91;;;1.90;100.00
65190;BME280;51777;53.570;9.984;2023-03-16T01:57:06;101731.09;;;1.92;100.00
65190;BME280;51777;53.570;9.984;2023-03-16T01:59:37;101728.75;;;1.87;100.00
65190;BME280;51777;53.570;9.984;2023-03-16T02:02:04;101721.94;;;1.88;100.00
65190;BME280;51777;53.570;9.984;2023-03-16T02:07:21;101721.28;;;1.83;100.00
65190;BME280;51777;53.570;9.984;2023-03-16T02:09:50;101724.09;;;1.76;100.00
65190;BME280;51777;53.570;9.984;2023-03-16T02:12:17;101719.91;;;1.75;100.00
65190;BME280;51777;53.570;9.984;2023-03-16T02:14:45;101719.84;;;1.77;100.00
65190;BME280;51777;53.570;9.984;2023-03-16T02:17:13;101711.22;;;1.80;100.00
65190;BME280;51777;53.570;9.984;2023-03-16T02:22:44;101705.38;;;1.77;100.00
65190;BME280;51777;53.570;9.984;2023-03-16T02:25:13;101698.63;;;1.76;100.00
65190;BME280;51777;53.570;9.984;2023-03-16T02:27:47;101700.41;;;1.74;100.00
65190;BME280;51777;53.570;9.984;2023-03-16T02:30:17;101703.19;;;1.68;100.00
65190;BME280;51777;53.570;9.984;2023-03-16T02:32:43;101692.78;;;1.73;100.00
65190;BME280;51777;53.570;9.984;2023-03-16T02:35:10;101694.47;;;1.74;100.00
65190;BME280;51777;53.570;9.984;2023-03-16T02:37:40;101692.94;;;1.70;100.00
65190;BME280;51777;53.570;9.984;2023-03-16T02:40:32;101702.44;;;1.66;100.00
65190;BME280;51777;53.570;9.984;2023-03-16T02:43:36;101701.63;;;1.66;100.00
65190;BME280;51777;53.570;9.984;2023-03-16T02:45:59;101701.75;;;1.63;100.00
65190;BME280;51777;53.570;9.984;2023-03-16T02:48:34;101711.34;;;1.56;100.00
65190;BME280;51777;53.570;9.984;2023-03-16T02:51:01;101696.34;;;1.50;100.00
65190;BME280;51777;53.570;9.984;2023-03-16T02:53:26;101705.81;;;1.46;100.00
65190;BME280;51777;53.570;9.984;2023-03-16T02:55:52;101703.19;;;1.48;100.00
65190;BME280;51777;53.570;9.984;2023-03-16T02:58:18;101712.53;;;1.49;100.00
65190;BME280;51777;53.570;9.984;2023-03-16T03:00:43;101709.97;;;1.49;100.00
65190;BME280;51777;53.570;9.984;2023-03-16T03:03:10;101700.84;;;1.43;100.00
65190;BME280;51777;53.570;9.984;2023-03-16T03:05:36;101700.00;;;1.43;100.00
65190;BME280;51777;53.570;9.984;2023-03-16T03:08:02;101705.19;;;1.41;100.00
65190;BME280;51777;53.570;9.984;2023-03-16T03:10:27;101710.28;;;1.41;100.00
65190;BME280;51777;53.570;9.984;2023-03-16T03:12:53;101706.38;;;1.33;100.00
65190;BME280;51777;53.570;9.984;2023-03-16T03:15:18;101712.28;;;1.33;100.00
65190;BME280;51777;53.570;9.984;2023-03-16T03:17:44;101720.91;;;1.31;100.00
65190;BME280;51777;53.570;9.984;2023-03-16T03:20:11;101726.81;;;1.31;100.00
65190;BME280;51777;53.570;9.984;2023-03-16T03:22:46;101731.78;;;1.34;100.00
65190;BME280;51777;53.570;9.984;2023-03-16T03:25:14;101725.75;;;1.37;100.00
65190;BME280;51777;53.570;9.984;2023-03-16T03:27:41;101719.66;;;1.41;100.00
65190;BME280;51777;53.570;9.984;2023-03-16T03:30:09;101713.78;;;1.39;100.00
65190;BME280;51777;53.570;9.984;2023-03-16T03:32:35;101706.22;;;1.37;100.00
65190;BME280;51777;53.570;9.984;2023-03-16T03:35:00;101714.16;;;1.30;100.00
65190;BME280;51777;53.570;9.984;2023-03-16T03:37:26;101712.50;;;1.29;100.00
65190;BME280;51777;53.570;9.984;2023-03-16T03:39:51;101713.44;;;1.26;100.00
65190;BME280;51777;53.570;9.984;2023-03-16T03:42:18;101712.84;;;1.20;100.00
65190;BME280;51777;53.570;9.984;2023-03-16T03:44:43;101715.41;;;1.20;100.00
65190;BME280;51777;53.570;9.984;2023-03-16T03:47:08;101713.00;;;1.16;100.00
65190;BME280;51777;53.570;9.984;2023-03-16T03:49:34;101712.03;;;1.19;100.00
65190;BME280;51777;53.570;9.984;2023-03-16T03:52:00;101719.59;;;1.21;100.00
65190;BME280;51777;53.570;9.984;2023-03-16T03:54:28;101711.13;;;1.20;100.00
65190;BME280;51777;53.570;9.984;2023-03-16T03:56:54;101712.84;;;1.20;100.00
65190;BME280;51777;53.570;9.984;2023-03-16T03:59:19;101718.22;;;1.13;100.00
65190;BME280;51777;53.570;9.984;2023-03-16T04:01:46;101713.00;;;1.16;100.00
65190;BME280;51777;53.570;9.984;2023-03-16T04:04:13;101708.91;;;1.12;100.00
65190;BME280;51777;53.570;9.984;2023-03-16T04:06:38;101712.38;;;1.10;100.00
65190;BME280;51777;53.570;9.984;2023-03-16T04:09:04;101714.09;;;1.09;100.00
65190;BME280;51777;53.570;9.984;2023-03-16T04:11:29;101703.97;;;1.08;100.00
65190;BME280;51777;53.570;9.984;2023-03-16T04:13:55;101705.00;;;1.04;100.00
65190;BME280;51777;53.570;9.984;2023-03-16T04:16:20;101715.97;;;1.06;100.00
65190;BME280;51777;53.570;9.984;2023-03-16T04:18:46;101709.09;;;1.08;100.00
65190;BME280;51777;53.570;9.984;2023-03-16T04:21:14;101708.38;;;1.04;100.00
65190;BME280;51777;53.570;9.984;2023-03-16T04:23:41;101711.28;;;0.95;100.00
65190;BME280;51777;53.570;9.984;2023-03-16T04:26:07;101710.25;;;0.99;100.00
65190;BME280;51777;53.570;9.984;2023-03-16T04:28:32;101703.47;;;1.00;100.00
65190;BME280;51777;53.570;9.984;2023-03-16T04:31:05;101698.56;;;0.95;100.00
65190;BME280;51777;53.570;9.984;2023-03-16T04:33:35;101704.72;;;0.90;100.00
65190;BME280;51777;53.570;9.984;2023-03-16T04:36:01;101696.25;;;0.89;100.00
65190;BME280;51777;53.570;9.984;2023-03-16T04:38:28;101700.53;;;0.88;100.00
65190;BME280;51777;53.570;9.984;2023-03-16T04:40:54;101700.47;;;0.90;100.00
65190;BME280;51777;53.570;9.984;2023-03-16T04:43:19;101704.00;;;0.86;100.00
65190;BME280;51777;53.570;9.984;2023-03-16T04:45:44;101707.56;;;0.82;100.00
65190;BME280;51777;53.570;9.984;2023-03-16T04:48:10;101706.66;;;0.83;100.00
65190;BME280;51777;53.570;9.984;2023-03-16T04:50:35;101701.56;;;0.83;100.00
65190;BME280;51777;53.570;9.984;2023-03-16T04:53:01;101700.53;;;0.88;100.00
65190;BME280;51777;53.570;9.984;2023-03-16T04:55:29;101707.34;;;0.88;100.00
65190;BME280;51777;53.570;9.984;2023-03-16T04:57:55;101704.53;;;0.94;100.00
65190;BME280;51777;53.570;9.984;2023-03-16T05:00:21;101696.00;;;0.95;100.00
65190;BME280;51777;53.570;9.984;2023-03-16T05:02:48;101685.69;;;0.98;100.00
65190;BME280;51777;53.570;9.984;2023-03-16T05:05:14;101689.78;;;1.02;100.00
65190;BME280;51777;53.570;9.984;2023-03-16T05:07:41;101688.00;;;1.04;100.00
65190;BME280;51777;53.570;9.984;2023-03-16T05:10:08;101683.75;;;1.05;100.00
65190;BME280;51777;53.570;9.984;2023-03-16T05:12:33;101682.97;;;1.03;100.00
65190;BME280;51777;53.570;9.984;2023-03-16T05:14:59;101688.78;;;1.06;100.00
65190;BME280;51777;53.570;9.984;2023-03-16T05:17:24;101684.56;;;1.05;100.00
65190;BME280;51777;53.570;9.984;2023-03-16T05:19:50;101688.97;;;1.02;100.00
65190;BME280;51777;53.570;9.984;2023-03-16T05:22:16;101688.13;;;1.01;100.00
65190;BME280;51777;53.570;9.984;2023-03-16T05:24:41;101695.09;;;0.96;100.00
65190;BME280;51777;53.570;9.984;2023-03-16T05:27:07;101693.22;;;1.01;100.00
65190;BME280;51777;53.570;9.984;2023-03-16T05:29:32;101683.75;;;1.05;100.00
65190;BME280;51777;53.570;9.984;2023-03-16T05:31:59;101692.06;;;1.08;100.00
65190;BME280;51777;53.570;9.984;2023-03-16T05:34:25;101682.78;;;1.07;100.00
65190;BME280;51777;53.570;9.984;2023-03-16T05:36:51;101696.06;;;1.15;100.00
65190;BME280;51777;53.570;9.984;2023-03-16T05:39:16;101696.06;;;1.15;100.00
65190;BME280;51777;53.570;9.984;2023-03-16T05:41:42;101704.06;;;1.06;100.00
65190;BME280;51777;53.570;9.984;2023-03-16T05:44:08;101708.38;;;1.04;100.00
65190;BME280;51777;53.570;9.984;2023-03-16T05:46:34;101708.31;;;1.06;100.00
65190;BME280;51777;53.570;9.984;2023-03-16T05:48:59;101710.72;;;1.09;100.00
65190;BME280;51777;53.570;9.984;2023-03-16T05:51:25;101712.28;;;1.13;100.00
65190;BME280;51777;53.570;9.984;2023-03-16T05:53:54;101720.69;;;1.15;100.00
65190;BME280;51777;53.570;9.984;2023-03-16T05:56:27;101716.69;;;1.30;100.00
65190;BME280;51777;53.570;9.984;2023-03-16T05:58:53;101712.28;;;1.33;100.00
65190;BME280;51777;53.570;9.984;2023-03-16T06:01:20;101715.19;;;1.26;100.00
65190;BME280;51777;53.570;9.984;2023-03-16T06:03:48;101709.25;;;1.25;100.00
65190;BME280;51777;53.570;9.984;2023-03-16T06:06:19;101707.47;;;1.27;100.00
65190;BME280;51777;53.570;9.984;2023-03-16T06:08:46;101717.19;;;1.17;100.00
65190;BME280;51777;53.570;9.984;2023-03-16T06:11:12;101721.03;;;1.28;100.00
65190;BME280;51777;53.570;9.984;2023-03-16T06:13:38;101720.75;;;1.34;100.00
65190;BME280;51777;53.570;9.984;2023-03-16T06:16:04;101716.91;;;1.45;100.00
65190;BME280;51777;53.570;9.984;2023-03-16T06:18:32;101717.72;;;1.46;100.00
65190;BME280;51777;53.570;9.984;2023-03-16T06:20:58;101707.47;;;1.47;100.00
65190;BME280;51777;53.570;9.984;2023-03-16T06:23:23;101713.66;;;1.42;100.00
65190;BME280;51777;53.570;9.984;2023-03-16T06:25:49;101710.59;;;1.54;100.00
65190;BME280;51777;53.570;9.984;2023-03-16T06:28:15;101712.19;;;1.57;100.00
65190;BME280;51777;53.570;9.984;2023-03-16T06:30:41;101723.34;;;1.54;100.00
65190;BME280;51777;53.570;9.984;2023-03-16T06:33:07;101723.22;;;1.57;100.00
65190;BME280;51777;53.570;9.984;2023-03-16T06:35:33;101733.03;;;1.66;100.00
65190;BME280;51777;53.570;9.984;2023-03-16T06:37:58;101732.50;;;1.58;100.00
65190;BME280;51777;53.570;9.984;2023-03-16T06:40:24;101741.22;;;1.73;100.00
65190;BME280;51777;53.570;9.984;2023-03-16T06:42:49;101736.19;;;1.71;100.00
65190;BME280;51777;53.570;9.984;2023-03-16T06:45:15;101745.13;;;1.82;100.00
65190;BME280;51777;53.570;9.984;2023-03-16T06:47:44;101739.56;;;1.92;100.00
65190;BME280;51777;53.570;9.984;2023-03-16T06:50:10;101739.88;;;2.05;100.00
65190;BME280;51777;53.570;9.984;2023-03-16T06:52:36;101739.88;;;2.05;100.00
65190;BME280;51777;53.570;9.984;2023-03-16T06:55:01;101739.06;;;2.04;100.00
65190;BME280;51777;53.570;9.984;2023-03-16T06:57:26;101745.25;;;1.99;100.00
65190;BME280;51777;53.570;9.984;2023-03-16T06:59:52;101748.44;;;2.04;100.00
65190;BME280;51777;53.570;9.984;2023-03-16T07:02:17;101746.94;;;1.98;100.00
65190;BME280;51777;53.570;9.984;2023-03-16T07:04:44;101746.34;;;1.93;100.00
65190;BME280;51777;53.570;9.984;2023-03-16T07:07:10;101750.19;;;2.41;100.00
65190;BME280;51777;53.570;9.984;2023-03-16T07:09:36;101749.19;;;3.36;100.00
65190;BME280;51777;53.570;9.984;2023-03-16T07:12:02;101761.81;;;4.40;100.00
65190;BME280;51777;53.570;9.984;2023-03-16T07:14:27;101768.97;;;5.28;100.00
65190;BME280;51777;53.570;9.984;2023-03-16T07:16:53;101762.09;;;5.88;100.00
65190;BME280;51777;53.570;9.984;2023-03-16T07:19:18;101762.38;;;6.55;100.00
65190;BME280;51777;53.570;9.984;2023-03-16T07:21:44;101762.94;;;7.14;100.00
65190;BME280;51777;53.570;9.984;2023-03-16T07:24:10;101773.56;;;7.87;100.00
65190;BME280;51777;53.570;9.984;2023-03-16T07:26:37;101774.00;;;8.07;100.00
65190;BME280;51777;53.570;9.984;2023-03-16T07:29:03;101777.47;;;8.57;100.00
65190;BME280;51777;53.570;9.984;2023-03-16T07:31:32;101784.38;;;8.31;100.00
65190;BME280;51777;53.570;9.984;2023-03-16T07:33:59;101782.84;;;8.15;100.00
65190;BME280;51777;53.570;9.984;2023-03-16T07:36:25;101771.09;;;7.86;100.00
65190;BME280;51777;53.570;9.984;2023-03-16T07:38:50;101766.34;;;6.88;100.00
65190;BME280;51777;53.570;9.984;2023-03-16T07:41:16;101775.44;;;6.24;100.00
65190;BME280;51777;53.570;9.984;2023-03-16T07:43:42;101784.41;;;6.31;100.00
65190;BME280;51777;53.570;9.984;2023-03-16T07:46:11;101780.38;;;6.96;100.00
65190;BME280;51777;53.570;9.984;2023-03-16T07:48:41;101790.25;;;7.69;100.00
65190;BME280;51777;53.570;9.984;2023-03-16T07:51:08;101791.41;;;8.41;100.00
65190;BME280;51777;53.570;9.984;2023-03-16T07:53:33;101798.00;;;9.65;100.00
65190;BME280;51777;53.570;9.984;2023-03-16T07:55:59;101792.91;;;10.88;100.00
65190;BME280;51777;53.570;9.984;2023-03-16T07:58:26;101794.09;;;9.94;100.00
65190;BME280;51777;53.570;9.984;2023-03-16T08:00:51;101800.81;;;10.08;100.00
65190;BME280;51777;53.570;9.984;2023-03-16T08:03:19;101801.75;;;10.74;100.00
65190;BME280;51777;53.570;9.984;2023-03-16T08:05:45;101803.69;;;12.60;100.00
65190;BME280;51777;53.570;9.984;2023-03-16T08:08:10;101811.41;;;14.61;100.00
65190;BME280;51777;53.570;9.984;2023-03-16T08:10:35;101813.06;;;13.11;100.00
65190;BME280;51777;53.570;9.984;2023-03-16T08:13:02;101797.56;;;12.21;100.00
65190;BME280;51777;53.570;9.984;2023-03-16T08:15:30;101799.53;;;11.45;100.00
65190;BME280;51777;53.570;9.984;2023-03-16T08:17:58;101803.97;;;11.22;100.00
65190;BME280;51777;53.570;9.984;2023-03-16T08:20:24;101802.34;;;12.25;100.00
65190;BME280;51777;53.570;9.984;2023-03-16T08:22:50;101806.63;;;12.05;100.00
65190;BME280;51777;53.570;9.984;2023-03-16T08:25:15;101802.97;;;12.48;100.00
65190;BME280;51777;53.570;9.984;2023-03-16T08:27:44;101813.63;;;14.19;100.00
65190;BME280;51777;53.570;9.984;2023-03-16T08:30:10;101812.78;;;15.72;99.16
65190;BME280;51777;53.570;9.984;2023-03-16T08:32:36;101810.34;;;16.31;99.19
65190;BME280;51777;53.570;9.984;2023-03-16T08:35:04;101820.06;;;17.78;97.79
65190;BME280;51777;53.570;9.984;2023-03-16T08:37:30;101816.78;;;17.60;97.40
65190;BME280;51777;53.570;9.984;2023-03-16T08:39:56;101817.78;;;17.35;96.55
65190;BME280;51777;53.570;9.984;2023-03-16T08:42:24;101822.38;;;18.37;96.51
65190;BME280;51777;53.570;9.984;2023-03-16T08:44:50;101822.66;;;18.42;95.33
65190;BME280;51777;53.570;9.984;2023-03-16T08:47:21;101818.69;;;18.54;94.52
65190;BME280;51777;53.570;9.984;2023-03-16T08:49:47;101809.94;;;16.52;96.67
65190;BME280;51777;53.570;9.984;2023-03-16T08:52:14;101827.53;;;18.84;96.73
65190;BME280;51777;53.570;9.984;2023-03-16T08:54:50;101818.38;;;19.11;94.28
65190;BME280;51777;53.570;9.984;2023-03-16T08:57:15;101820.91;;;19.94;93.95
65190;BME280;51777;53.570;9.984;2023-03-16T08:59:41;101820.09;;;20.53;93.72
65190;BME280;51777;53.570;9.984;2023-03-16T09:02:11;101807.16;;;18.71;93.71
65190;BME280;51777;53.570;9.984;2023-03-16T09:04:38;101798.81;;;17.81;95.27
65190;BME280;51777;53.570;9.984;2023-03-16T09:07:04;101802.16;;;18.85;94.71
65190;BME280;51777;53.570;9.984;2023-03-16T09:09:30;101806.38;;;18.24;95.01
65190;BME280;51777;53.570;9.984;2023-03-16T09:12:03;101807.19;;;18.63;95.03
65190;BME280;51777;53.570;9.984;2023-03-16T09:14:30;101806.06;;;18.18;95.56
65190;BME280;51777;53.570;9.984;2023-03-16T09:16:55;101798.63;;;19.23;96.49
65190;BME280;51777;53.570;9.984;2023-03-16T09:19:27;101797.91;;;16.67;97.03
65190;BME280;51777;53.570;9.984;2023-03-16T09:21:57;101785.03;;;15.63;98.67
65190;BME280;51777;53.570;9.984;2023-03-16T09:24:22;101784.19;;;16.14;98.62
65190;BME280;51777;53.570;9.984;2023-03-16T09:26:48;101789.44;;;15.63;99.13
65190;BME280;51777;53.570;9.984;2023-03-16T09:29:16;101798.63;;;17.83;97.54
65190;BME280;51777;53.570;9.984;2023-03-16T09:31:43;101792.78;;;17.56;96.93
65190;BME280;51777;53.570;9.984;2023-03-16T09:34:08;101787.19;;;16.78;97.88
65190;BME280;51777;53.570;9.984;2023-03-16T09:36:34;101789.25;;;19.44;96.45
65190;BME280;51777;53.570;9.984;2023-03-16T09:39:00;101793.41;;;20.05;94.22
65190;BME280;51777;53.570;9.984;2023-03-16T09:46:45;101779.84;;;17.87;95.16
65190;BME280;51777;53.570;9.984;2023-03-16T09:49:16;101774.78;;;17.86;95.16
65190;BME280;51777;53.570;9.984;2023-03-16T09:54:48;101779.84;;;18.58;94.55
65190;BME280;51777;53.570;9.984;2023-03-16T09:57:27;101762.91;;;17.26;95.40
65190;BME280;51777;53.570;9.984;2023-03-16T10:00:09;101754.38;;;16.25;96.93
65190;BME280;51777;53.570;9.984;2023-03-16T10:02:44;101759.88;;;16.14;97.83
65190;BME280;51777;53.570;9.984;2023-03-16T10:05:13;101750.19;;;16.40;96.96
65190;BME280;51777;53.570;9.984;2023-03-16T10:08:00;101750.56;;;16.11;97.38
65190;BME280;51777;53.570;9.984;2023-03-16T10:12:59;101747.00;;;15.35;98.79
65190;BME280;51777;53.570;9.984;2023-03-16T10:15:28;101742.72;;;16.03;98.30
65190;BME280;51777;53.570;9.984;2023-03-16T10:18:17;101741.91;;;14.89;97.51
65190;BME280;51777;53.570;9.984;2023-03-16T10:20:45;101738.31;;;15.52;96.68
65190;BME280;51777;53.570;9.984;2023-03-16T10:23:23;101748.22;;;15.66;96.58
65190;BME280;51777;53.570;9.984;2023-03-16T10:25:51;101738.84;;;16.24;96.15
65190;BME280;51777;53.570;9.984;2023-03-16T10:28:19;101740.19;;;17.27;94.59
65190;BME280;51777;53.570;9.984;2023-03-16T10:30:50;101736.16;;;15.99;92.62
65190;BME280;51777;53.570;9.984;2023-03-16T10:35:54;101737.50;;;14.27;93.82
65190;BME280;51777;53.570;9.984;2023-03-16T10:40:52;101729.22;;;15.56;93.54
65190;BME280;51777;53.570;9.984;2023-03-16T10:43:18;101721.25;;;14.15;93.76
65190;BME280;51777;53.570;9.984;2023-03-16T10:45:44;101720.63;;;14.31;94.40
65190;BME280;51777;53.570;9.984;2023-03-16T10:48:16;101715.66;;;13.73;94.36
65190;BME280;51777;53.570;9.984;2023-03-16T10:50:49;101716.75;;;13.80;94.20
65190;BME280;51777;53.570;9.984;2023-03-16T10:53:42;101705.13;;;12.79;94.50
65190;BME280;51777;53.570;9.984;2023-03-16T10:58:40;101707.72;;;12.70;94.51
65190;BME280;51777;53.570;9.984;2023-03-16T11:01:26;101698.59;;;13.61;93.67
65190;BME280;51777;53.570;9.984;2023-03-16T11:03:54;101707.75;;;14.92;92.94
65190;BME280;51777;53.570;9.984;2023-03-16T11:06:24;101696.13;;;14.87;92.27
65190;BME280;51777;53.570;9.984;2023-03-16T11:08:51;101703.06;;;15.40;92.16
65190;BME280;51777;53.570;9.984;2023-03-16T11:11:30;101703.38;;;15.97;91.32
65190;BME280;51777;53.570;9.984;2023-03-16T11:13:59;101696.50;;;15.36;91.93
65190;BME280;51777;53.570;9.984;2023-03-16T11:16:49;101686.22;;;15.34;91.63
65190;BME280;51777;53.570;9.984;2023-03-16T11:22:03;101687.00;;;15.78;92.00
65190;BME280;51777;53.570;9.984;2023-03-16T11:27:03;101680.13;;;15.69;91.95
65190;BME280;51777;53.570;9.984;2023-03-16T11:32:10;101673.66;;;14.86;90.61
65190;BME280;51777;53.570;9.984;2023-03-16T11:34:37;101668.50;;;14.68;90.78
65190;BME280;51777;53.570;9.984;2023-03-16T11:40:50;101663.41;;;15.54;90.65
65190;BME280;51777;53.570;9.984;2023-03-16T11:43:38;101662.75;;;15.26;89.80
65190;BME280;51777;53.570;9.984;2023-03-16T11:46:16;101655.53;;;15.20;90.30
65190;BME280;51777;53.570;9.984;2023-03-16T11:51:37;101658.69;;;15.32;90.08
65190;BME280;51777;53.570;9.984;2023-03-16T11:54:28;101656.34;;;14.94;90.34
65190;BME280;51777;53.570;9.984;2023-03-16T11:57:42;101636.13;;;15.14;91.18
65190;BME280;51777;53.570;9.984;2023-03-16T12:00:08;101635.22;;;14.26;91.32
65190;BME280;51777;53.570;9.984;2023-03-16T12:11:21;101614.16;;;14.02;91.20
65190;BME280;51777;53.570;9.984;2023-03-16T12:16:22;101613.44;;;15.07;89.95
65190;BME280;51777;53.570;9.984;2023-03-16T12:18:54;101606.66;;;14.17;89.87
65190;BME280;51777;53.570;9.984;2023-03-16T12:21:28;101610.44;;;13.49;90.48
65190;BME280;51777;53.570;9.984;2023-03-16T12:24:00;101607.13;;;13.85;90.35
65190;BME280;51777;53.570;9.984;2023-03-16T12:26:30;101595.13;;;13.74;90.21
65190;BME280;51777;53.570;9.984;2023-03-16T12:28:58;101599.28;;;13.94;90.22
65190;BME280;51777;53.570;9.984;2023-03-16T12:31:50;101600.88;;;14.76;89.70
65190;BME280;51777;53.570;9.984;2023-03-16T12:37:21;101586.28;;;15.43;88.42
65190;BME280;51777;53.570;9.984;2023-03-16T12:40:37;101587.00;;;16.12;87.87
65190;BME280;51777;53.570;9.984;2023-03-16T12:43:37;101566.28;;;15.94;87.16
65190;BME280;51777;53.570;9.984;2023-03-16T12:46:16;101570.94;;;15.74;88.13
65190;BME280;51777;53.570;9.984;2023-03-16T12:48:48;101569.34;;;15.47;87.86
65190;BME280;51777;53.570;9.984;2023-03-16T12:51:16;101559.50;;;14.99;88.08
65190;BME280;51777;53.570;9.984;2023-03-16T12:54:00;101563.09;;;15.32;88.65
65190;BME280;51777;53.570;9.984;2023-03-16T12:56:30;101556.84;;;15.17;87.20
65190;BME280;51777;53.570;9.984;2023-03-16T12:58:59;101556.34;;;15.55;87.17
65190;BME280;51777;53.570;9.984;2023-03-16T13:01:37;101563.00;;;15.42;87.47
65190;BME280;51777;53.570;9.984;2023-03-16T13:06:34;101550.03;;;14.64;88.13
65190;BME280;51777;53.570;9.984;2023-03-16T13:09:02;101539.47;;;14.48;88.86
65190;BME280;51777;53.570;9.984;2023-03-16T13:11:39;101528.09;;;14.75;88.85
65190;BME280;51777;53.570;9.984;2023-03-16T13:14:07;101532.03;;;15.05;88.83
65190;BME280;51777;53.570;9.984;2023-03-16T13:16:40;101526.03;;;15.12;88.87
65190;BME280;51777;53.570;9.984;2023-03-16T13:19:26;101517.38;;;15.46;88.90
65190;BME280;51777;53.570;9.984;2023-03-16T13:22:18;101520.28;;;15.35;89.34
65190;BME280;51777;53.570;9.984;2023-03-16T13:24:59;101514.66;;;15.13;89.72
65190;BME280;51777;53.570;9.984;2023-03-16T13:27:37;101518.19;;;15.04;89.52
65190;BME280;51777;53.570;9.984;2023-03-16T13:30:19;101510.69;;;14.67;89.61
65190;BME280;51777;53.570;9.984;2023-03-16T13:32:45;101512.56;;;14.39;89.92
65190;BME280;51777;53.570;9.984;2023-03-16T13:35:16;101499.81;;;14.10;90.13
65190;BME280;51777;53.570;9.984;2023-03-16T13:37:42;101495.56;;;14.27;90.72
65190;BME280;51777;53.570;9.984;2023-03-16T13:40:20;101495.84;;;14.24;90.84
65190;BME280;51777;53.570;9.984;2023-03-16T13:42:47;101493.41;;;13.87;91.22
65190;BME280;51777;53.570;9.984;2023-03-16T13:45:27;101479.44;;;13.70;91.36
65190;BME280;51777;53.570;9.984;2023-03-16T13:47:52;101491.41;;;13.35;92.26
65190;BME280;51777;53.570;9.984;2023-03-16T13:50:18;101483.38;;;12.45;92.40
65190;BME280;51777;53.570;9.984;2023-03-16T13:52:56;101483.69;;;12.22;93.28
65190;BME280;51777;53.570;9.984;2023-03-16T13:55:29;101475.16;;;12.49;92.41